sensor_id;sensor_type;location;lat;lon;timestamp;pressure;altitude;pressure_sealevel;temperature
17142;BMP180;32805;53.556;9.944;2022-07-22T00:02:06;101408.00;;;18.90
17142;BMP180;32805;53.556;9.944;2022-07-22T00:04:34;101405.00;;;19.00
17142;BMP180;32805;53.556;9.944;2022-07-22T00:07:03;101411.00;;;19.00
17142;BMP180;32805;53.556;9.944;2022-07-22T00:09:31;101409.00;;;19.00
17142;BMP180;32805;53.556;9.944;2022-07-22T00:11:59;101420.00;;;18.90
17142;BMP180;32805;53.556;9.944;2022-07-22T00:14:27;101435.00;;;18.70
17142;BMP180;32805;53.556;9.944;2022-07-22T00:16:55;101438.00;;;18.40
17142;BMP180;32805;53.556;9.944;2022-07-22T00:19:23;101438.00;;;18.20
17142;BMP180;32805;53.556;9.944;2022-07-22T00:21:51;101442.00;;;18.10
17142;BMP180;32805;53.556;9.944;2022-07-22T00:24:21;101435.00;;;17.90
17142;BMP180;32805;53.556;9.944;2022-07-22T00:26:49;101432.00;;;17.70
17142;BMP180;32805;53.556;9.944;2022-07-22T00:29:16;101447.00;;;17.70
17142;BMP180;32805;53.556;9.944;2022-07-22T00:31:44;101451.00;;;17.60
17142;BMP180;32805;53.556;9.944;2022-07-22T00:34:12;101439.00;;;17.60
17142;BMP180;32805;53.556;9.944;2022-07-22T00:36:40;101441.00;;;17.60
17142;BMP180;32805;53.556;9.944;2022-07-22T00:39:08;101448.00;;;17.50
17142;BMP180;32805;53.556;9.944;2022-07-22T00:41:37;101454.00;;;17.40
17142;BMP180;32805;53.556;9.944;2022-07-22T00:44:06;101458.00;;;17.30
17142;BMP180;32805;53.556;9.944;2022-07-22T00:46:37;101460.00;;;17.20
17142;BMP180;32805;53.556;9.944;2022-07-22T00:49:06;101460.00;;;17.20
17142;BMP180;32805;53.556;9.944;2022-07-22T00:51:35;101458.00;;;17.20
17142;BMP180;32805;53.556;9.944;2022-07-22T00:54:04;101458.00;;;17.00
17142;BMP180;32805;53.556;9.944;2022-07-22T00:56:32;101456.00;;;16.90
17142;BMP180;32805;53.556;9.944;2022-07-22T00:59:05;101460.00;;;16.80
17142;BMP180;32805;53.556;9.944;2022-07-22T01:01:33;101472.00;;;16.70
17142;BMP180;32805;53.556;9.944;2022-07-22T01:04:01;101470.00;;;16.50
17142;BMP180;32805;53.556;9.944;2022-07-22T01:06:29;101475.00;;;16.40
17142;BMP180;32805;53.556;9.944;2022-07-22T01:08:57;101468.00;;;16.40
17142;BMP180;32805;53.556;9.944;2022-07-22T01:11:26;101472.00;;;16.30
17142;BMP180;32805;53.556;9.944;2022-07-22T01:13:55;101465.00;;;16.30
17142;BMP180;32805;53.556;9.944;2022-07-22T01:16:25;101461.00;;;16.20
17142;BMP180;32805;53.556;9.944;2022-07-22T01:18:53;101469.00;;;16.20
17142;BMP180;32805;53.556;9.944;2022-07-22T01:21:23;101477.00;;;16.20
17142;BMP180;32805;53.556;9.944;2022-07-22T01:23:51;101473.00;;;16.10
17142;BMP180;32805;53.556;9.944;2022-07-22T01:26:19;101476.00;;;16.10
17142;BMP180;32805;53.556;9.944;2022-07-22T01:28:47;101485.00;;;16.10
17142;BMP180;32805;53.556;9.944;2022-07-22T01:31:15;101481.00;;;15.90
17142;BMP180;32805;53.556;9.944;2022-07-22T01:33:44;101487.00;;;15.80
17142;BMP180;32805;53.556;9.944;2022-07-22T01:36:11;101502.00;;;15.80
17142;BMP180;32805;53.556;9.944;2022-07-22T01:38:41;101492.00;;;15.80
17142;BMP180;32805;53.556;9.944;2022-07-22T01:41:08;101494.00;;;15.80
17142;BMP180;32805;53.556;9.944;2022-07-22T01:43:37;101494.00;;;15.80
17142;BMP180;32805;53.556;9.944;2022-07-22T01:46:05;101484.00;;;15.80
17142;BMP180;32805;53.556;9.944;2022-07-22T01:48:37;101494.00;;;15.90
17142;BMP180;32805;53.556;9.944;2022-07-22T01:51:05;101497.00;;;15.80
17142;BMP180;32805;53.556;9.944;2022-07-22T01:53:35;101500.00;;;15.80
17142;BMP180;32805;53.556;9.944;2022-07-22T01:56:05;101504.00;;;15.90
17142;BMP180;32805;53.556;9.944;2022-07-22T01:58:38;101503.00;;;15.90
17142;BMP180;32805;53.556;9.944;2022-07-22T02:01:08;101504.00;;;15.90
17142;BMP180;32805;53.556;9.944;2022-07-22T02:03:36;101506.00;;;15.80
17142;BMP180;32805;53.556;9.944;2022-07-22T02:06:06;101493.00;;;15.90
17142;BMP180;32805;53.556;9.944;2022-07-22T02:08:34;101515.00;;;16.00
17142;BMP180;32805;53.556;9.944;2022-07-22T02:11:12;101506.00;;;16.00
17142;BMP180;32805;53.556;9.944;2022-07-22T02:13:52;101499.00;;;15.90
17142;BMP180;32805;53.556;9.944;2022-07-22T02:16:20;101510.00;;;15.90
17142;BMP180;32805;53.556;9.944;2022-07-22T02:18:50;101509.00;;;15.80
17142;BMP180;32805;53.556;9.944;2022-07-22T02:21:18;101518.00;;;15.90
17142;BMP180;32805;53.556;9.944;2022-07-22T02:23:46;101498.00;;;15.90
17142;BMP180;32805;53.556;9.944;2022-07-22T02:26:16;101507.00;;;16.00
17142;BMP180;32805;53.556;9.944;2022-07-22T02:28:44;101506.00;;;16.00
17142;BMP180;32805;53.556;9.944;2022-07-22T02:31:12;101511.00;;;15.90
17142;BMP180;32805;53.556;9.944;2022-07-22T02:33:39;101510.00;;;15.90
17142;BMP180;32805;53.556;9.944;2022-07-22T02:36:08;101510.00;;;16.10
17142;BMP180;32805;53.556;9.944;2022-07-22T02:38:36;101518.00;;;16.00
17142;BMP180;32805;53.556;9.944;2022-07-22T02:41:04;101507.00;;;16.00
17142;BMP180;32805;53.556;9.944;2022-07-22T02:43:37;101509.00;;;16.00
17142;BMP180;32805;53.556;9.944;2022-07-22T02:46:05;101522.00;;;15.90
17142;BMP180;32805;53.556;9.944;2022-07-22T02:48:32;101520.00;;;15.90
17142;BMP180;32805;53.556;9.944;2022-07-22T02:51:01;101529.00;;;15.80
17142;BMP180;32805;53.556;9.944;2022-07-22T02:53:29;101518.00;;;15.90
17142;BMP180;32805;53.556;9.944;2022-07-22T02:55:59;101527.00;;;15.90
17142;BMP180;32805;53.556;9.944;2022-07-22T02:58:26;101534.00;;;15.80
17142;BMP180;32805;53.556;9.944;2022-07-22T03:00:56;101523.00;;;15.90
17142;BMP180;32805;53.556;9.944;2022-07-22T03:03:24;101522.00;;;15.90
17142;BMP180;32805;53.556;9.944;2022-07-22T03:05:53;101534.00;;;16.00
17142;BMP180;32805;53.556;9.944;2022-07-22T03:08:34;101530.00;;;15.90
17142;BMP180;32805;53.556;9.944;2022-07-22T03:11:02;101534.00;;;15.80
17142;BMP180;32805;53.556;9.944;2022-07-22T03:13:30;101529.00;;;15.80
17142;BMP180;32805;53.556;9.944;2022-07-22T03:15:59;101532.00;;;15.90
17142;BMP180;32805;53.556;9.944;2022-07-22T03:18:27;101531.00;;;16.10
17142;BMP180;32805;53.556;9.944;2022-07-22T03:20:55;101525.00;;;15.90
17142;BMP180;32805;53.556;9.944;2022-07-22T03:23:23;101535.00;;;15.90
17142;BMP180;32805;53.556;9.944;2022-07-22T03:25:51;101540.00;;;15.90
17142;BMP180;32805;53.556;9.944;2022-07-22T03:28:18;101533.00;;;16.00
17142;BMP180;32805;53.556;9.944;2022-07-22T03:30:46;101538.00;;;16.00
17142;BMP180;32805;53.556;9.944;2022-07-22T03:33:17;101532.00;;;16.10
17142;BMP180;32805;53.556;9.944;2022-07-22T03:35:45;101533.00;;;16.10
17142;BMP180;32805;53.556;9.944;2022-07-22T03:38:13;101531.00;;;16.00
17142;BMP180;32805;53.556;9.944;2022-07-22T03:40:42;101534.00;;;16.10
17142;BMP180;32805;53.556;9.944;2022-07-22T03:43:10;101535.00;;;16.00
17142;BMP180;32805;53.556;9.944;2022-07-22T03:45:37;101531.00;;;16.10
17142;BMP180;32805;53.556;9.944;2022-07-22T03:48:08;101533.00;;;16.10
17142;BMP180;32805;53.556;9.944;2022-07-22T03:50:39;101530.00;;;16.10
17142;BMP180;32805;53.556;9.944;2022-07-22T03:53:07;101527.00;;;16.00
17142;BMP180;32805;53.556;9.944;2022-07-22T03:55:37;101539.00;;;16.10
17142;BMP180;32805;53.556;9.944;2022-07-22T03:58:06;101533.00;;;16.10
17142;BMP180;32805;53.556;9.944;2022-07-22T04:00:34;101535.00;;;16.00
17142;BMP180;32805;53.556;9.944;2022-07-22T04:03:05;101538.00;;;16.00
17142;BMP180;32805;53.556;9.944;2022-07-22T04:05:59;101536.00;;;16.00
17142;BMP180;32805;53.556;9.944;2022-07-22T04:08:40;101541.00;;;16.00
17142;BMP180;32805;53.556;9.944;2022-07-22T04:11:08;101536.00;;;15.90
17142;BMP180;32805;53.556;9.944;2022-07-22T04:13:36;101537.00;;;15.70
17142;BMP180;32805;53.556;9.944;2022-07-22T04:16:04;101538.00;;;15.60
17142;BMP180;32805;53.556;9.944;2022-07-22T04:18:33;101525.00;;;15.60
17142;BMP180;32805;53.556;9.944;2022-07-22T04:21:02;101542.00;;;15.70
17142;BMP180;32805;53.556;9.944;2022-07-22T04:23:48;101546.00;;;15.80
17142;BMP180;32805;53.556;9.944;2022-07-22T04:26:22;101544.00;;;15.90
17142;BMP180;32805;53.556;9.944;2022-07-22T04:28:51;101554.00;;;15.60
17142;BMP180;32805;53.556;9.944;2022-07-22T04:31:20;101552.00;;;15.70
17142;BMP180;32805;53.556;9.944;2022-07-22T04:33:54;101557.00;;;15.60
17142;BMP180;32805;53.556;9.944;2022-07-22T04:36:23;101565.00;;;15.60
17142;BMP180;32805;53.556;9.944;2022-07-22T04:38:52;101564.00;;;15.60
17142;BMP180;32805;53.556;9.944;2022-07-22T04:41:20;101559.00;;;15.70
17142;BMP180;32805;53.556;9.944;2022-07-22T04:43:49;101554.00;;;15.70
17142;BMP180;32805;53.556;9.944;2022-07-22T04:46:20;101565.00;;;15.80
17142;BMP180;32805;53.556;9.944;2022-07-22T04:48:48;101555.00;;;15.60
17142;BMP180;32805;53.556;9.944;2022-07-22T04:51:15;101556.00;;;15.50
17142;BMP180;32805;53.556;9.944;2022-07-22T04:53:46;101556.00;;;15.50
17142;BMP180;32805;53.556;9.944;2022-07-22T04:56:19;101560.00;;;15.60
17142;BMP180;32805;53.556;9.944;2022-07-22T04:58:49;101559.00;;;15.50
17142;BMP180;32805;53.556;9.944;2022-07-22T05:01:18;101564.00;;;15.50
17142;BMP180;32805;53.556;9.944;2022-07-22T05:03:49;101561.00;;;15.50
17142;BMP180;32805;53.556;9.944;2022-07-22T05:06:18;101567.00;;;15.70
17142;BMP180;32805;53.556;9.944;2022-07-22T05:08:47;101565.00;;;15.70
17142;BMP180;32805;53.556;9.944;2022-07-22T05:11:15;101555.00;;;15.70
17142;BMP180;32805;53.556;9.944;2022-07-22T05:13:46;101566.00;;;15.70
17142;BMP180;32805;53.556;9.944;2022-07-22T05:16:14;101566.00;;;15.70
17142;BMP180;32805;53.556;9.944;2022-07-22T05:18:43;101566.00;;;15.80
17142;BMP180;32805;53.556;9.944;2022-07-22T05:21:14;101574.00;;;15.80
17142;BMP180;32805;53.556;9.944;2022-07-22T05:23:42;101570.00;;;15.80
17142;BMP180;32805;53.556;9.944;2022-07-22T05:26:13;101575.00;;;15.70
17142;BMP180;32805;53.556;9.944;2022-07-22T05:28:41;101567.00;;;15.60
17142;BMP180;32805;53.556;9.944;2022-07-22T05:31:09;101578.00;;;15.60
17142;BMP180;32805;53.556;9.944;2022-07-22T05:33:37;101569.00;;;15.60
17142;BMP180;32805;53.556;9.944;2022-07-22T05:36:24;101572.00;;;15.60
17142;BMP180;32805;53.556;9.944;2022-07-22T05:38:54;101578.00;;;15.80
17142;BMP180;32805;53.556;9.944;2022-07-22T05:41:24;101578.00;;;15.90
17142;BMP180;32805;53.556;9.944;2022-07-22T05:43:52;101575.00;;;15.90
17142;BMP180;32805;53.556;9.944;2022-07-22T05:46:19;101568.00;;;16.10
17142;BMP180;32805;53.556;9.944;2022-07-22T05:48:47;101575.00;;;16.00
17142;BMP180;32805;53.556;9.944;2022-07-22T05:51:15;101582.00;;;16.00
17142;BMP180;32805;53.556;9.944;2022-07-22T05:53:46;101568.00;;;16.10
17142;BMP180;32805;53.556;9.944;2022-07-22T05:56:15;101583.00;;;16.10
17142;BMP180;32805;53.556;9.944;2022-07-22T05:58:44;101571.00;;;16.10
17142;BMP180;32805;53.556;9.944;2022-07-22T06:01:12;101567.00;;;16.10
17142;BMP180;32805;53.556;9.944;2022-07-22T06:03:40;101584.00;;;16.20
17142;BMP180;32805;53.556;9.944;2022-07-22T06:06:11;101575.00;;;16.20
17142;BMP180;32805;53.556;9.944;2022-07-22T06:08:40;101583.00;;;16.20
17142;BMP180;32805;53.556;9.944;2022-07-22T06:11:10;101581.00;;;16.20
17142;BMP180;32805;53.556;9.944;2022-07-22T06:13:38;101574.00;;;16.30
17142;BMP180;32805;53.556;9.944;2022-07-22T06:16:14;101583.00;;;16.30
17142;BMP180;32805;53.556;9.944;2022-07-22T06:18:42;101574.00;;;16.30
17142;BMP180;32805;53.556;9.944;2022-07-22T06:21:10;101580.00;;;16.20
17142;BMP180;32805;53.556;9.944;2022-07-22T06:23:39;101572.00;;;16.00
17142;BMP180;32805;53.556;9.944;2022-07-22T06:26:06;101581.00;;;16.10
17142;BMP180;32805;53.556;9.944;2022-07-22T06:28:45;101560.00;;;16.20
17142;BMP180;32805;53.556;9.944;2022-07-22T06:31:17;101594.00;;;16.30
17142;BMP180;32805;53.556;9.944;2022-07-22T06:33:44;101584.00;;;16.40
17142;BMP180;32805;53.556;9.944;2022-07-22T06:36:12;101583.00;;;16.60
17142;BMP180;32805;53.556;9.944;2022-07-22T06:38:40;101576.00;;;16.60
17142;BMP180;32805;53.556;9.944;2022-07-22T06:41:37;101587.00;;;16.60
17142;BMP180;32805;53.556;9.944;2022-07-22T06:44:05;101577.00;;;16.60
17142;BMP180;32805;53.556;9.944;2022-07-22T06:47:03;101584.00;;;16.80
17142;BMP180;32805;53.556;9.944;2022-07-22T06:49:31;101584.00;;;16.90
17142;BMP180;32805;53.556;9.944;2022-07-22T06:52:00;101575.00;;;16.90
17142;BMP180;32805;53.556;9.944;2022-07-22T06:54:28;101580.00;;;16.90
17142;BMP180;32805;53.556;9.944;2022-07-22T06:56:59;101566.00;;;17.10
17142;BMP180;32805;53.556;9.944;2022-07-22T06:59:31;101586.00;;;17.10
17142;BMP180;32805;53.556;9.944;2022-07-22T07:02:05;101590.00;;;17.10
17142;BMP180;32805;53.556;9.944;2022-07-22T07:04:37;101588.00;;;17.20
17142;BMP180;32805;53.556;9.944;2022-07-22T07:07:05;101582.00;;;17.40
17142;BMP180;32805;53.556;9.944;2022-07-22T07:09:48;101572.00;;;17.40
17142;BMP180;32805;53.556;9.944;2022-07-22T07:12:25;101576.00;;;17.30
17142;BMP180;32805;53.556;9.944;2022-07-22T07:15:06;101585.00;;;17.20
17142;BMP180;32805;53.556;9.944;2022-07-22T07:17:58;101577.00;;;17.20
17142;BMP180;32805;53.556;9.944;2022-07-22T07:20:26;101577.00;;;17.10
17142;BMP180;32805;53.556;9.944;2022-07-22T07:22:54;101591.00;;;17.10
17142;BMP180;32805;53.556;9.944;2022-07-22T07:25:24;101586.00;;;17.10
17142;BMP180;32805;53.556;9.944;2022-07-22T07:27:55;101603.00;;;17.20
17142;BMP180;32805;53.556;9.944;2022-07-22T07:30:44;101604.00;;;17.10
17142;BMP180;32805;53.556;9.944;2022-07-22T07:33:20;101614.00;;;17.00
17142;BMP180;32805;53.556;9.944;2022-07-22T07:35:49;101600.00;;;17.10
17142;BMP180;32805;53.556;9.944;2022-07-22T07:38:24;101590.00;;;17.10
17142;BMP180;32805;53.556;9.944;2022-07-22T07:40:55;101604.00;;;17.30
17142;BMP180;32805;53.556;9.944;2022-07-22T07:43:23;101609.00;;;17.10
17142;BMP180;32805;53.556;9.944;2022-07-22T07:45:52;101603.00;;;17.10
17142;BMP180;32805;53.556;9.944;2022-07-22T07:48:21;101578.00;;;17.10
17142;BMP180;32805;53.556;9.944;2022-07-22T07:50:49;101598.00;;;17.20
17142;BMP180;32805;53.556;9.944;2022-07-22T07:53:17;101601.00;;;17.40
17142;BMP180;32805;53.556;9.944;2022-07-22T07:55:45;101596.00;;;17.60
17142;BMP180;32805;53.556;9.944;2022-07-22T07:58:14;101614.00;;;17.40
17142;BMP180;32805;53.556;9.944;2022-07-22T08:00:42;101599.00;;;17.40
17142;BMP180;32805;53.556;9.944;2022-07-22T08:03:10;101607.00;;;17.40
17142;BMP180;32805;53.556;9.944;2022-07-22T08:05:40;101617.00;;;17.30
17142;BMP180;32805;53.556;9.944;2022-07-22T08:08:14;101618.00;;;17.30
17142;BMP180;32805;53.556;9.944;2022-07-22T08:10:43;101616.00;;;17.40
17142;BMP180;32805;53.556;9.944;2022-07-22T08:13:46;101624.00;;;17.50
17142;BMP180;32805;53.556;9.944;2022-07-22T08:16:32;101624.00;;;17.50
17142;BMP180;32805;53.556;9.944;2022-07-22T08:19:04;101618.00;;;17.70
17142;BMP180;32805;53.556;9.944;2022-07-22T08:21:33;101612.00;;;17.80
17142;BMP180;32805;53.556;9.944;2022-07-22T08:24:16;101633.00;;;18.00
17142;BMP180;32805;53.556;9.944;2022-07-22T08:26:44;101636.00;;;18.20
17142;BMP180;32805;53.556;9.944;2022-07-22T08:29:12;101639.00;;;17.90
17142;BMP180;32805;53.556;9.944;2022-07-22T08:31:39;101632.00;;;18.00
17142;BMP180;32805;53.556;9.944;2022-07-22T08:34:11;101637.00;;;17.90
17142;BMP180;32805;53.556;9.944;2022-07-22T08:36:40;101634.00;;;17.90
17142;BMP180;32805;53.556;9.944;2022-07-22T08:39:09;101644.00;;;18.00
17142;BMP180;32805;53.556;9.944;2022-07-22T08:41:37;101636.00;;;18.10
17142;BMP180;32805;53.556;9.944;2022-07-22T08:44:07;101635.00;;;18.00
17142;BMP180;32805;53.556;9.944;2022-07-22T08:46:36;101643.00;;;18.00
17142;BMP180;32805;53.556;9.944;2022-07-22T08:49:28;101641.00;;;18.00
17142;BMP180;32805;53.556;9.944;2022-07-22T08:52:19;101648.00;;;18.20
17142;BMP180;32805;53.556;9.944;2022-07-22T08:54:48;101630.00;;;18.50
17142;BMP180;32805;53.556;9.944;2022-07-22T08:57:17;101643.00;;;18.70
17142;BMP180;32805;53.556;9.944;2022-07-22T08:59:52;101635.00;;;18.50
17142;BMP180;32805;53.556;9.944;2022-07-22T09:02:21;101639.00;;;18.40
17142;BMP180;32805;53.556;9.944;2022-07-22T09:04:52;101646.00;;;18.50
17142;BMP180;32805;53.556;9.944;2022-07-22T09:07:26;101641.00;;;18.50
17142;BMP180;32805;53.556;9.944;2022-07-22T09:09:56;101647.00;;;18.50
17142;BMP180;32805;53.556;9.944;2022-07-22T09:12:25;101649.00;;;18.40
17142;BMP180;32805;53.556;9.944;2022-07-22T09:15:06;101646.00;;;18.50
17142;BMP180;32805;53.556;9.944;2022-07-22T09:17:53;101646.00;;;18.50
17142;BMP180;32805;53.556;9.944;2022-07-22T09:20:38;101639.00;;;18.60
17142;BMP180;32805;53.556;9.944;2022-07-22T09:23:38;101638.00;;;18.60
17142;BMP180;32805;53.556;9.944;2022-07-22T09:26:06;101649.00;;;18.50
17142;BMP180;32805;53.556;9.944;2022-07-22T09:28:54;101642.00;;;18.60
17142;BMP180;32805;53.556;9.944;2022-07-22T09:31:30;101658.00;;;18.40
17142;BMP180;32805;53.556;9.944;2022-07-22T09:34:08;101666.00;;;18.30
17142;BMP180;32805;53.556;9.944;2022-07-22T09:36:54;101647.00;;;18.30
17142;BMP180;32805;53.556;9.944;2022-07-22T09:39:27;101657.00;;;18.50
17142;BMP180;32805;53.556;9.944;2022-07-22T09:41:56;101662.00;;;18.20
17142;BMP180;32805;53.556;9.944;2022-07-22T09:44:25;101651.00;;;18.60
17142;BMP180;32805;53.556;9.944;2022-07-22T09:46:54;101657.00;;;18.60
17142;BMP180;32805;53.556;9.944;2022-07-22T09:49:33;101662.00;;;18.70
17142;BMP180;32805;53.556;9.944;2022-07-22T09:52:20;101659.00;;;19.00
17142;BMP180;32805;53.556;9.944;2022-07-22T09:55:06;101655.00;;;18.90
17142;BMP180;32805;53.556;9.944;2022-07-22T09:57:36;101653.00;;;18.90
17142;BMP180;32805;53.556;9.944;2022-07-22T10:00:05;101655.00;;;19.00
17142;BMP180;32805;53.556;9.944;2022-07-22T10:02:48;101664.00;;;19.20
17142;BMP180;32805;53.556;9.944;2022-07-22T10:05:21;101651.00;;;19.10
17142;BMP180;32805;53.556;9.944;2022-07-22T10:07:51;101655.00;;;19.20
17142;BMP180;32805;53.556;9.944;2022-07-22T10:10:21;101664.00;;;19.00
17142;BMP180;32805;53.556;9.944;2022-07-22T10:12:51;101658.00;;;18.80
17142;BMP180;32805;53.556;9.944;2022-07-22T10:15:21;101677.00;;;18.70
17142;BMP180;32805;53.556;9.944;2022-07-22T10:17:51;101678.00;;;18.60
17142;BMP180;32805;53.556;9.944;2022-07-22T10:20:22;101677.00;;;18.80
17142;BMP180;32805;53.556;9.944;2022-07-22T10:22:53;101677.00;;;18.70
17142;BMP180;32805;53.556;9.944;2022-07-22T10:25:30;101682.00;;;18.60
17142;BMP180;32805;53.556;9.944;2022-07-22T10:28:01;101688.00;;;18.60
17142;BMP180;32805;53.556;9.944;2022-07-22T10:30:32;101690.00;;;18.50
17142;BMP180;32805;53.556;9.944;2022-07-22T10:33:03;101687.00;;;18.40
17142;BMP180;32805;53.556;9.944;2022-07-22T10:35:35;101686.00;;;18.60
17142;BMP180;32805;53.556;9.944;2022-07-22T10:38:07;101682.00;;;18.80
17142;BMP180;32805;53.556;9.944;2022-07-22T10:40:51;101688.00;;;18.60
17142;BMP180;32805;53.556;9.944;2022-07-22T10:43:21;101685.00;;;18.60
17142;BMP180;32805;53.556;9.944;2022-07-22T10:45:51;101687.00;;;18.80
17142;BMP180;32805;53.556;9.944;2022-07-22T10:48:25;101687.00;;;19.10
17142;BMP180;32805;53.556;9.944;2022-07-22T10:51:07;101683.00;;;19.00
17142;BMP180;32805;53.556;9.944;2022-07-22T10:53:43;101701.00;;;18.70
17142;BMP180;32805;53.556;9.944;2022-07-22T10:56:21;101686.00;;;18.80
17142;BMP180;32805;53.556;9.944;2022-07-22T10:58:51;101688.00;;;18.80
17142;BMP180;32805;53.556;9.944;2022-07-22T11:01:23;101682.00;;;18.60
17142;BMP180;32805;53.556;9.944;2022-07-22T11:03:52;101680.00;;;18.40
17142;BMP180;32805;53.556;9.944;2022-07-22T11:06:26;101683.00;;;18.70
17142;BMP180;32805;53.556;9.944;2022-07-22T11:08:58;101678.00;;;19.00
17142;BMP180;32805;53.556;9.944;2022-07-22T11:11:34;101668.00;;;19.00
17142;BMP180;32805;53.556;9.944;2022-07-22T11:14:03;101678.00;;;19.10
17142;BMP180;32805;53.556;9.944;2022-07-22T11:16:31;101679.00;;;18.90
17142;BMP180;32805;53.556;9.944;2022-07-22T11:19:00;101676.00;;;18.80
17142;BMP180;32805;53.556;9.944;2022-07-22T11:21:30;101682.00;;;18.80
17142;BMP180;32805;53.556;9.944;2022-07-22T11:24:07;101686.00;;;18.70
17142;BMP180;32805;53.556;9.944;2022-07-22T11:26:40;101669.00;;;19.10
17142;BMP180;32805;53.556;9.944;2022-07-22T11:29:09;101683.00;;;19.00
17142;BMP180;32805;53.556;9.944;2022-07-22T11:31:37;101682.00;;;18.90
17142;BMP180;32805;53.556;9.944;2022-07-22T11:34:07;101686.00;;;19.10
17142;BMP180;32805;53.556;9.944;2022-07-22T11:36:36;101692.00;;;19.10
17142;BMP180;32805;53.556;9.944;2022-07-22T11:39:05;101692.00;;;19.00
17142;BMP180;32805;53.556;9.944;2022-07-22T11:41:34;101687.00;;;18.70
17142;BMP180;32805;53.556;9.944;2022-07-22T11:44:05;101675.00;;;19.00
17142;BMP180;32805;53.556;9.944;2022-07-22T11:46:37;101699.00;;;19.20
17142;BMP180;32805;53.556;9.944;2022-07-22T11:49:06;101685.00;;;19.20
17142;BMP180;32805;53.556;9.944;2022-07-22T11:51:36;101682.00;;;19.20
17142;BMP180;32805;53.556;9.944;2022-07-22T11:54:05;101684.00;;;19.10
17142;BMP180;32805;53.556;9.944;2022-07-22T11:56:33;101681.00;;;19.10
17142;BMP180;32805;53.556;9.944;2022-07-22T11:59:03;101685.00;;;19.20
17142;BMP180;32805;53.556;9.944;2022-07-22T12:01:33;101682.00;;;18.80
17142;BMP180;32805;53.556;9.944;2022-07-22T12:04:04;101679.00;;;18.90
17142;BMP180;32805;53.556;9.944;2022-07-22T12:06:34;101688.00;;;18.90
17142;BMP180;32805;53.556;9.944;2022-07-22T12:09:06;101691.00;;;18.80
17142;BMP180;32805;53.556;9.944;2022-07-22T12:11:38;101674.00;;;18.80
17142;BMP180;32805;53.556;9.944;2022-07-22T12:14:12;101701.00;;;18.70
17142;BMP180;32805;53.556;9.944;2022-07-22T12:16:42;101688.00;;;18.60
17142;BMP180;32805;53.556;9.944;2022-07-22T12:19:12;101687.00;;;18.70
17142;BMP180;32805;53.556;9.944;2022-07-22T12:21:53;101685.00;;;18.90
17142;BMP180;32805;53.556;9.944;2022-07-22T12:24:27;101683.00;;;19.50
17142;BMP180;32805;53.556;9.944;2022-07-22T12:26:57;101675.00;;;19.80
17142;BMP180;32805;53.556;9.944;2022-07-22T12:29:29;101679.00;;;19.70
17142;BMP180;32805;53.556;9.944;2022-07-22T12:31:59;101674.00;;;19.30
17142;BMP180;32805;53.556;9.944;2022-07-22T12:34:36;101670.00;;;19.30
17142;BMP180;32805;53.556;9.944;2022-07-22T12:37:14;101675.00;;;19.40
17142;BMP180;32805;53.556;9.944;2022-07-22T12:39:55;101674.00;;;19.60
17142;BMP180;32805;53.556;9.944;2022-07-22T12:42:24;101668.00;;;19.70
17142;BMP180;32805;53.556;9.944;2022-07-22T12:45:00;101666.00;;;19.50
17142;BMP180;32805;53.556;9.944;2022-07-22T12:47:40;101670.00;;;19.40
17142;BMP180;32805;53.556;9.944;2022-07-22T12:50:23;101669.00;;;19.60
17142;BMP180;32805;53.556;9.944;2022-07-22T12:52:55;101666.00;;;19.70
17142;BMP180;32805;53.556;9.944;2022-07-22T12:55:44;101669.00;;;20.00
17142;BMP180;32805;53.556;9.944;2022-07-22T12:58:15;101672.00;;;19.80
17142;BMP180;32805;53.556;9.944;2022-07-22T13:00:50;101666.00;;;19.70
17142;BMP180;32805;53.556;9.944;2022-07-22T13:03:19;101672.00;;;19.60
17142;BMP180;32805;53.556;9.944;2022-07-22T13:05:50;101666.00;;;19.80
17142;BMP180;32805;53.556;9.944;2022-07-22T13:08:18;101674.00;;;20.00
17142;BMP180;32805;53.556;9.944;2022-07-22T13:10:48;101664.00;;;20.30
17142;BMP180;32805;53.556;9.944;2022-07-22T13:13:16;101654.00;;;20.40
17142;BMP180;32805;53.556;9.944;2022-07-22T13:15:44;101640.00;;;20.40
17142;BMP180;32805;53.556;9.944;2022-07-22T13:18:26;101654.00;;;20.60
17142;BMP180;32805;53.556;9.944;2022-07-22T13:20:55;101660.00;;;20.50
17142;BMP180;32805;53.556;9.944;2022-07-22T13:23:22;101648.00;;;20.50
17142;BMP180;32805;53.556;9.944;2022-07-22T13:25:51;101659.00;;;20.70
17142;BMP180;32805;53.556;9.944;2022-07-22T13:28:21;101652.00;;;20.40
17142;BMP180;32805;53.556;9.944;2022-07-22T13:30:49;101655.00;;;20.30
17142;BMP180;32805;53.556;9.944;2022-07-22T13:33:17;101650.00;;;20.00
17142;BMP180;32805;53.556;9.944;2022-07-22T13:35:47;101654.00;;;19.90
17142;BMP180;32805;53.556;9.944;2022-07-22T13:38:15;101649.00;;;19.90
17142;BMP180;32805;53.556;9.944;2022-07-22T13:40:46;101651.00;;;19.90
17142;BMP180;32805;53.556;9.944;2022-07-22T13:43:19;101627.00;;;19.90
17142;BMP180;32805;53.556;9.944;2022-07-22T13:45:47;101651.00;;;19.80
17142;BMP180;32805;53.556;9.944;2022-07-22T13:48:15;101657.00;;;19.90
17142;BMP180;32805;53.556;9.944;2022-07-22T13:50:47;101659.00;;;20.10
17142;BMP180;32805;53.556;9.944;2022-07-22T13:53:15;101672.00;;;20.10
17142;BMP180;32805;53.556;9.944;2022-07-22T13:55:42;101669.00;;;20.30
17142;BMP180;32805;53.556;9.944;2022-07-22T13:58:10;101656.00;;;20.50
17142;BMP180;32805;53.556;9.944;2022-07-22T14:00:39;101640.00;;;20.70
17142;BMP180;32805;53.556;9.944;2022-07-22T14:03:07;101644.00;;;20.70
17142;BMP180;32805;53.556;9.944;2022-07-22T14:05:35;101655.00;;;20.30
17142;BMP180;32805;53.556;9.944;2022-07-22T14:08:05;101645.00;;;20.30
17142;BMP180;32805;53.556;9.944;2022-07-22T14:10:33;101651.00;;;20.50
17142;BMP180;32805;53.556;9.944;2022-07-22T14:13:00;101652.00;;;20.40
17142;BMP180;32805;53.556;9.944;2022-07-22T14:15:28;101650.00;;;20.10
17142;BMP180;32805;53.556;9.944;2022-07-22T14:17:56;101662.00;;;20.10
17142;BMP180;32805;53.556;9.944;2022-07-22T14:20:24;101647.00;;;20.20